sensor_id;sensor_type;location;lat;lon;timestamp;P1;durP1;ratioP1;P2;durP2;ratioP2
37407;SDS011;24866;50.248;8.252;2022-10-31T00:00:35;10.18;;;4.38;;
37407;SDS011;24866;50.248;8.252;2022-10-31T00:03:06;14.10;;;4.05;;
37407;SDS011;24866;50.248;8.252;2022-10-31T00:05:39;7.60;;;3.42;;
37407;SDS011;24866;50.248;8.252;2022-10-31T00:08:10;8.73;;;3.97;;
37407;SDS011;24866;50.248;8.252;2022-10-31T00:10:40;14.50;;;4.53;;
37407;SDS011;24866;50.248;8.252;2022-10-31T00:13:11;10.40;;;4.03;;
37407;SDS011;24866;50.248;8.252;2022-10-31T00:15:42;7.78;;;3.80;;
37407;SDS011;24866;50.248;8.252;2022-10-31T00:18:13;7.13;;;3.60;;
37407;SDS011;24866;50.248;8.252;2022-10-31T00:20:43;10.32;;;4.15;;
37407;SDS011;24866;50.248;8.252;2022-10-31T00:23:13;7.80;;;3.60;;
37407;SDS011;24866;50.248;8.252;2022-10-31T00:25:43;10.13;;;3.47;;
37407;SDS011;24866;50.248;8.252;2022-10-31T00:28:13;9.55;;;4.60;;
37407;SDS011;24866;50.248;8.252;2022-10-31T00:30:43;11.15;;;4.28;;
37407;SDS011;24866;50.248;8.252;2022-10-31T00:33:14;7.43;;;3.80;;
37407;SDS011;24866;50.248;8.252;2022-10-31T00:35:48;7.32;;;3.30;;
37407;SDS011;24866;50.248;8.252;2022-10-31T00:38:19;6.78;;;3.55;;
37407;SDS011;24866;50.248;8.252;2022-10-31T00:40:49;11.27;;;3.53;;
37407;SDS011;24866;50.248;8.252;2022-10-31T00:43:19;9.73;;;3.47;;
37407;SDS011;24866;50.248;8.252;2022-10-31T00:45:49;10.48;;;3.65;;
37407;SDS011;24866;50.248;8.252;2022-10-31T00:48:20;7.10;;;3.83;;
37407;SDS011;24866;50.248;8.252;2022-10-31T00:50:50;7.97;;;3.42;;
37407;SDS011;24866;50.248;8.252;2022-10-31T00:53:20;11.07;;;3.60;;
37407;SDS011;24866;50.248;8.252;2022-10-31T00:55:50;9.05;;;4.63;;
37407;SDS011;24866;50.248;8.252;2022-10-31T00:58:20;6.32;;;3.53;;
37407;SDS011;24866;50.248;8.252;2022-10-31T01:00:50;13.18;;;3.80;;
37407;SDS011;24866;50.248;8.252;2022-10-31T01:03:24;11.85;;;3.83;;
37407;SDS011;24866;50.248;8.252;2022-10-31T01:05:56;11.48;;;4.30;;
37407;SDS011;24866;50.248;8.252;2022-10-31T01:08:27;7.30;;;4.07;;
37407;SDS011;24866;50.248;8.252;2022-10-31T01:10:58;9.02;;;3.92;;
37407;SDS011;24866;50.248;8.252;2022-10-31T01:13:33;7.72;;;3.90;;
37407;SDS011;24866;50.248;8.252;2022-10-31T01:16:04;6.72;;;3.65;;
37407;SDS011;24866;50.248;8.252;2022-10-31T01:18:37;8.35;;;3.80;;
37407;SDS011;24866;50.248;8.252;2022-10-31T01:21:07;7.35;;;3.88;;
37407;SDS011;24866;50.248;8.252;2022-10-31T01:23:39;7.63;;;2.97;;
37407;SDS011;24866;50.248;8.252;2022-10-31T01:26:10;10.07;;;4.47;;
37407;SDS011;24866;50.248;8.252;2022-10-31T01:28:43;10.02;;;4.18;;
37407;SDS011;24866;50.248;8.252;2022-10-31T01:31:15;10.35;;;4.00;;
37407;SDS011;24866;50.248;8.252;2022-10-31T01:33:47;9.38;;;3.53;;
37407;SDS011;24866;50.248;8.252;2022-10-31T01:36:18;17.33;;;3.65;;
37407;SDS011;24866;50.248;8.252;2022-10-31T01:38:50;7.35;;;3.50;;
37407;SDS011;24866;50.248;8.252;2022-10-31T01:41:22;7.85;;;3.70;;
37407;SDS011;24866;50.248;8.252;2022-10-31T01:46:25;7.40;;;3.25;;
37407;SDS011;24866;50.248;8.252;2022-10-31T01:49:01;11.50;;;3.67;;
37407;SDS011;24866;50.248;8.252;2022-10-31T01:51:34;7.65;;;3.38;;
37407;SDS011;24866;50.248;8.252;2022-10-31T01:54:08;6.55;;;3.28;;
37407;SDS011;24866;50.248;8.252;2022-10-31T01:56:43;8.80;;;3.50;;
37407;SDS011;24866;50.248;8.252;2022-10-31T01:59:17;9.15;;;3.38;;
37407;SDS011;24866;50.248;8.252;2022-10-31T02:01:50;7.22;;;3.20;;
37407;SDS011;24866;50.248;8.252;2022-10-31T02:04:22;10.32;;;3.58;;
37407;SDS011;24866;50.248;8.252;2022-10-31T02:06:55;10.43;;;3.30;;
37407;SDS011;24866;50.248;8.252;2022-10-31T02:09:27;9.35;;;3.67;;
37407;SDS011;24866;50.248;8.252;2022-10-31T02:11:59;6.10;;;3.50;;
37407;SDS011;24866;50.248;8.252;2022-10-31T02:14:30;9.13;;;4.07;;
37407;SDS011;24866;50.248;8.252;2022-10-31T02:17:00;18.52;;;4.72;;
37407;SDS011;24866;50.248;8.252;2022-10-31T02:19:33;13.15;;;4.75;;
37407;SDS011;24866;50.248;8.252;2022-10-31T02:22:12;6.82;;;3.60;;
37407;SDS011;24866;50.248;8.252;2022-10-31T02:24:58;8.63;;;4.07;;
37407;SDS011;24866;50.248;8.252;2022-10-31T02:27:45;8.65;;;3.92;;
37407;SDS011;24866;50.248;8.252;2022-10-31T02:30:31;11.50;;;4.18;;
37407;SDS011;24866;50.248;8.252;2022-10-31T02:33:14;13.05;;;4.28;;
37407;SDS011;24866;50.248;8.252;2022-10-31T02:35:57;8.18;;;3.60;;
37407;SDS011;24866;50.248;8.252;2022-10-31T02:38:37;7.38;;;3.65;;
37407;SDS011;24866;50.248;8.252;2022-10-31T02:41:16;7.95;;;3.40;;
37407;SDS011;24866;50.248;8.252;2022-10-31T02:43:55;8.07;;;3.83;;
37407;SDS011;24866;50.248;8.252;2022-10-31T02:46:32;8.65;;;3.85;;
37407;SDS011;24866;50.248;8.252;2022-10-31T02:49:10;9.45;;;3.13;;
37407;SDS011;24866;50.248;8.252;2022-10-31T02:51:45;9.02;;;3.95;;
37407;SDS011;24866;50.248;8.252;2022-10-31T02:54:17;7.00;;;3.58;;
37407;SDS011;24866;50.248;8.252;2022-10-31T02:56:47;10.18;;;3.35;;
37407;SDS011;24866;50.248;8.252;2022-10-31T02:59:19;7.53;;;3.22;;
37407;SDS011;24866;50.248;8.252;2022-10-31T03:01:56;7.00;;;3.75;;
37407;SDS011;24866;50.248;8.252;2022-10-31T03:04:44;13.60;;;4.78;;
37407;SDS011;24866;50.248;8.252;2022-10-31T03:07:27;14.65;;;4.20;;
37407;SDS011;24866;50.248;8.252;2022-10-31T03:10:04;9.57;;;3.97;;
37407;SDS011;24866;50.248;8.252;2022-10-31T03:12:42;7.88;;;3.90;;
37407;SDS011;24866;50.248;8.252;2022-10-31T03:15:19;7.45;;;4.07;;
37407;SDS011;24866;50.248;8.252;2022-10-31T03:17:55;8.48;;;3.15;;
37407;SDS011;24866;50.248;8.252;2022-10-31T03:20:31;8.35;;;3.42;;
37407;SDS011;24866;50.248;8.252;2022-10-31T03:23:06;8.32;;;3.53;;
37407;SDS011;24866;50.248;8.252;2022-10-31T03:25:40;9.05;;;3.20;;
37407;SDS011;24866;50.248;8.252;2022-10-31T03:28:12;8.38;;;3.95;;
37407;SDS011;24866;50.248;8.252;2022-10-31T03:30:44;10.07;;;3.72;;
37407;SDS011;24866;50.248;8.252;2022-10-31T03:33:16;10.57;;;4.25;;
37407;SDS011;24866;50.248;8.252;2022-10-31T03:35:52;8.90;;;3.65;;
37407;SDS011;24866;50.248;8.252;2022-10-31T03:38:24;6.93;;;3.60;;
37407;SDS011;24866;50.248;8.252;2022-10-31T03:40:55;9.43;;;4.20;;
37407;SDS011;24866;50.248;8.252;2022-10-31T03:43:30;9.35;;;3.80;;
37407;SDS011;24866;50.248;8.252;2022-10-31T03:46:05;8.57;;;4.72;;
37407;SDS011;24866;50.248;8.252;2022-10-31T03:48:35;10.25;;;4.65;;
37407;SDS011;24866;50.248;8.252;2022-10-31T03:51:07;11.65;;;4.05;;
37407;SDS011;24866;50.248;8.252;2022-10-31T03:53:44;7.55;;;3.53;;
37407;SDS011;24866;50.248;8.252;2022-10-31T03:56:19;7.40;;;3.42;;
37407;SDS011;24866;50.248;8.252;2022-10-31T03:58:58;7.45;;;3.85;;
37407;SDS011;24866;50.248;8.252;2022-10-31T04:01:30;9.05;;;3.70;;
37407;SDS011;24866;50.248;8.252;2022-10-31T04:04:03;7.20;;;2.95;;
37407;SDS011;24866;50.248;8.252;2022-10-31T04:06:36;9.45;;;3.40;;
37407;SDS011;24866;50.248;8.252;2022-10-31T04:09:08;9.95;;;3.65;;
37407;SDS011;24866;50.248;8.252;2022-10-31T04:11:40;7.05;;;3.30;;
37407;SDS011;24866;50.248;8.252;2022-10-31T04:14:14;7.78;;;2.92;;
37407;SDS011;24866;50.248;8.252;2022-10-31T04:16:44;6.80;;;3.00;;
37407;SDS011;24866;50.248;8.252;2022-10-31T04:19:15;7.57;;;3.75;;
37407;SDS011;24866;50.248;8.252;2022-10-31T04:21:46;7.50;;;3.50;;
37407;SDS011;24866;50.248;8.252;2022-10-31T04:24:16;7.97;;;3.58;;
37407;SDS011;24866;50.248;8.252;2022-10-31T04:26:46;6.53;;;3.33;;
37407;SDS011;24866;50.248;8.252;2022-10-31T04:29:16;9.70;;;4.18;;
37407;SDS011;24866;50.248;8.252;2022-10-31T04:31:46;8.48;;;3.78;;
37407;SDS011;24866;50.248;8.252;2022-10-31T04:34:16;7.82;;;3.13;;
37407;SDS011;24866;50.248;8.252;2022-10-31T04:36:47;8.38;;;3.95;;
37407;SDS011;24866;50.248;8.252;2022-10-31T04:39:17;8.68;;;3.75;;
37407;SDS011;24866;50.248;8.252;2022-10-31T04:41:48;10.80;;;3.53;;
37407;SDS011;24866;50.248;8.252;2022-10-31T04:44:18;11.32;;;3.78;;
37407;SDS011;24866;50.248;8.252;2022-10-31T04:46:48;7.82;;;3.22;;
37407;SDS011;24866;50.248;8.252;2022-10-31T04:49:18;9.75;;;3.42;;
37407;SDS011;24866;50.248;8.252;2022-10-31T04:51:49;8.45;;;3.58;;
37407;SDS011;24866;50.248;8.252;2022-10-31T04:54:19;6.50;;;3.33;;
37407;SDS011;24866;50.248;8.252;2022-10-31T04:56:49;8.35;;;3.80;;
37407;SDS011;24866;50.248;8.252;2022-10-31T04:59:18;6.30;;;3.42;;
37407;SDS011;24866;50.248;8.252;2022-10-31T05:01:48;8.80;;;3.40;;
37407;SDS011;24866;50.248;8.252;2022-10-31T05:04:18;7.43;;;3.42;;
37407;SDS011;24866;50.248;8.252;2022-10-31T05:06:49;8.95;;;3.45;;
37407;SDS011;24866;50.248;8.252;2022-10-31T05:09:19;8.32;;;3.17;;
37407;SDS011;24866;50.248;8.252;2022-10-31T05:11:49;8.57;;;3.70;;
37407;SDS011;24866;50.248;8.252;2022-10-31T05:14:19;8.10;;;2.83;;
37407;SDS011;24866;50.248;8.252;2022-10-31T05:16:49;6.82;;;3.60;;
37407;SDS011;24866;50.248;8.252;2022-10-31T05:19:19;6.75;;;2.97;;
37407;SDS011;24866;50.248;8.252;2022-10-31T05:21:50;9.27;;;3.75;;
37407;SDS011;24866;50.248;8.252;2022-10-31T05:24:20;9.93;;;4.00;;
37407;SDS011;24866;50.248;8.252;2022-10-31T05:26:50;7.70;;;4.43;;
37407;SDS011;24866;50.248;8.252;2022-10-31T05:29:20;13.50;;;3.40;;
37407;SDS011;24866;50.248;8.252;2022-10-31T05:31:50;5.55;;;3.03;;
37407;SDS011;24866;50.248;8.252;2022-10-31T05:34:20;7.78;;;3.30;;
37407;SDS011;24866;50.248;8.252;2022-10-31T05:36:51;8.15;;;3.80;;
37407;SDS011;24866;50.248;8.252;2022-10-31T05:39:21;9.73;;;4.55;;
37407;SDS011;24866;50.248;8.252;2022-10-31T05:41:51;9.02;;;4.07;;
37407;SDS011;24866;50.248;8.252;2022-10-31T05:44:20;6.43;;;3.40;;
37407;SDS011;24866;50.248;8.252;2022-10-31T05:46:50;9.23;;;3.60;;
37407;SDS011;24866;50.248;8.252;2022-10-31T05:49:20;8.20;;;3.67;;
37407;SDS011;24866;50.248;8.252;2022-10-31T05:51:52;9.05;;;4.10;;
37407;SDS011;24866;50.248;8.252;2022-10-31T05:54:22;7.85;;;3.75;;
37407;SDS011;24866;50.248;8.252;2022-10-31T05:56:52;10.02;;;4.13;;
37407;SDS011;24866;50.248;8.252;2022-10-31T05:59:21;6.43;;;3.35;;
37407;SDS011;24866;50.248;8.252;2022-10-31T06:01:51;7.72;;;3.97;;
37407;SDS011;24866;50.248;8.252;2022-10-31T06:04:21;9.68;;;4.30;;
37407;SDS011;24866;50.248;8.252;2022-10-31T06:06:53;8.70;;;3.85;;
37407;SDS011;24866;50.248;8.252;2022-10-31T06:09:22;9.18;;;3.53;;
37407;SDS011;24866;50.248;8.252;2022-10-31T06:11:52;9.68;;;4.00;;
37407;SDS011;24866;50.248;8.252;2022-10-31T06:14:22;8.32;;;3.67;;
37407;SDS011;24866;50.248;8.252;2022-10-31T06:16:53;6.25;;;3.25;;
37407;SDS011;24866;50.248;8.252;2022-10-31T06:19:23;10.32;;;4.00;;
37407;SDS011;24866;50.248;8.252;2022-10-31T06:21:54;9.25;;;3.65;;
37407;SDS011;24866;50.248;8.252;2022-10-31T06:24:24;9.98;;;4.45;;
37407;SDS011;24866;50.248;8.252;2022-10-31T06:26:54;9.23;;;4.22;;
37407;SDS011;24866;50.248;8.252;2022-10-31T06:29:24;7.45;;;3.85;;
37407;SDS011;24866;50.248;8.252;2022-10-31T06:31:54;8.95;;;3.92;;
37407;SDS011;24866;50.248;8.252;2022-10-31T06:34:24;8.75;;;3.47;;
37407;SDS011;24866;50.248;8.252;2022-10-31T06:36:55;9.98;;;3.85;;
37407;SDS011;24866;50.248;8.252;2022-10-31T06:39:25;10.40;;;4.35;;
37407;SDS011;24866;50.248;8.252;2022-10-31T06:41:54;10.50;;;3.90;;
37407;SDS011;24866;50.248;8.252;2022-10-31T06:44:24;7.40;;;3.50;;
37407;SDS011;24866;50.248;8.252;2022-10-31T06:46:54;11.25;;;3.83;;
37407;SDS011;24866;50.248;8.252;2022-10-31T06:49:24;10.73;;;4.00;;
37407;SDS011;24866;50.248;8.252;2022-10-31T06:51:56;10.32;;;3.78;;
37407;SDS011;24866;50.248;8.252;2022-10-31T06:54:26;13.52;;;3.88;;
37407;SDS011;24866;50.248;8.252;2022-10-31T06:56:55;10.20;;;4.50;;
37407;SDS011;24866;50.248;8.252;2022-10-31T06:59:25;12.15;;;4.90;;
37407;SDS011;24866;50.248;8.252;2022-10-31T07:01:57;13.07;;;4.95;;
37407;SDS011;24866;50.248;8.252;2022-10-31T07:04:27;11.20;;;4.55;;
37407;SDS011;24866;50.248;8.252;2022-10-31T07:06:58;11.07;;;4.95;;
37407;SDS011;24866;50.248;8.252;2022-10-31T07:09:28;12.50;;;5.38;;
37407;SDS011;24866;50.248;8.252;2022-10-31T07:11:57;10.10;;;4.97;;
37407;SDS011;24866;50.248;8.252;2022-10-31T07:14:27;8.40;;;4.43;;
37407;SDS011;24866;50.248;8.252;2022-10-31T07:16:57;12.52;;;6.28;;
37407;SDS011;24866;50.248;8.252;2022-10-31T07:19:27;13.27;;;7.25;;
37407;SDS011;24866;50.248;8.252;2022-10-31T07:21:58;11.25;;;6.35;;
37407;SDS011;24866;50.248;8.252;2022-10-31T07:24:28;10.60;;;5.43;;
37407;SDS011;24866;50.248;8.252;2022-10-31T07:26:58;9.25;;;4.55;;
37407;SDS011;24866;50.248;8.252;2022-10-31T07:29:28;7.63;;;4.57;;
37407;SDS011;24866;50.248;8.252;2022-10-31T07:31:58;12.45;;;4.93;;
37407;SDS011;24866;50.248;8.252;2022-10-31T07:34:28;9.25;;;4.45;;
37407;SDS011;24866;50.248;8.252;2022-10-31T07:36:59;7.85;;;3.80;;
37407;SDS011;24866;50.248;8.252;2022-10-31T07:39:29;10.05;;;4.35;;
37407;SDS011;24866;50.248;8.252;2022-10-31T07:41:59;8.70;;;4.10;;
37407;SDS011;24866;50.248;8.252;2022-10-31T07:44:29;9.13;;;4.28;;
37407;SDS011;24866;50.248;8.252;2022-10-31T07:46:59;8.27;;;4.50;;
37407;SDS011;24866;50.248;8.252;2022-10-31T07:49:29;8.13;;;4.57;;
37407;SDS011;24866;50.248;8.252;2022-10-31T07:52:00;8.88;;;4.40;;
37407;SDS011;24866;50.248;8.252;2022-10-31T07:54:30;9.25;;;4.38;;
37407;SDS011;24866;50.248;8.252;2022-10-31T07:57:00;11.18;;;4.63;;
37407;SDS011;24866;50.248;8.252;2022-10-31T07:59:30;10.18;;;4.82;;
37407;SDS011;24866;50.248;8.252;2022-10-31T08:01:59;10.75;;;4.43;;
37407;SDS011;24866;50.248;8.252;2022-10-31T08:04:29;11.32;;;3.95;;
37407;SDS011;24866;50.248;8.252;2022-10-31T08:07:00;12.13;;;4.75;;
37407;SDS011;24866;50.248;8.252;2022-10-31T08:09:30;10.50;;;4.97;;
37407;SDS011;24866;50.248;8.252;2022-10-31T08:12:00;13.45;;;5.40;;
37407;SDS011;24866;50.248;8.252;2022-10-31T08:14:30;11.38;;;5.35;;
37407;SDS011;24866;50.248;8.252;2022-10-31T08:17:00;9.65;;;5.30;;
37407;SDS011;24866;50.248;8.252;2022-10-31T08:19:30;16.02;;;5.70;;
37407;SDS011;24866;50.248;8.252;2022-10-31T08:22:01;14.32;;;5.55;;
37407;SDS011;24866;50.248;8.252;2022-10-31T08:24:31;11.85;;;5.25;;
37407;SDS011;24866;50.248;8.252;2022-10-31T08:27:01;11.68;;;5.22;;
37407;SDS011;24866;50.248;8.252;2022-10-31T08:29:31;10.65;;;5.20;;
37407;SDS011;24866;50.248;8.252;2022-10-31T08:32:01;10.93;;;5.28;;
37407;SDS011;24866;50.248;8.252;2022-10-31T08:34:31;13.20;;;4.95;;
37407;SDS011;24866;50.248;8.252;2022-10-31T08:37:02;11.32;;;4.75;;
37407;SDS011;24866;50.248;8.252;2022-10-31T08:39:32;13.95;;;6.13;;
37407;SDS011;24866;50.248;8.252;2022-10-31T08:42:02;11.75;;;4.90;;
37407;SDS011;24866;50.248;8.252;2022-10-31T08:44:32;14.63;;;5.63;;
37407;SDS011;24866;50.248;8.252;2022-10-31T08:47:02;12.95;;;5.30;;
37407;SDS011;24866;50.248;8.252;2022-10-31T08:49:31;13.52;;;5.55;;
37407;SDS011;24866;50.248;8.252;2022-10-31T08:52:03;10.20;;;4.70;;
37407;SDS011;24866;50.248;8.252;2022-10-31T08:54:33;9.10;;;4.47;;
37407;SDS011;24866;50.248;8.252;2022-10-31T08:57:03;12.05;;;6.18;;
37407;SDS011;24866;50.248;8.252;2022-10-31T08:59:33;10.75;;;5.70;;
37407;SDS011;24866;50.248;8.252;2022-10-31T09:02:03;12.00;;;5.53;;
37407;SDS011;24866;50.248;8.252;2022-10-31T09:04:34;10.25;;;5.72;;
37407;SDS011;24866;50.248;8.252;2022-10-31T09:07:05;13.48;;;5.47;;
37407;SDS011;24866;50.248;8.252;2022-10-31T09:09:35;14.70;;;5.15;;
37407;SDS011;24866;50.248;8.252;2022-10-31T09:12:05;10.75;;;5.90;;
37407;SDS011;24866;50.248;8.252;2022-10-31T09:14:35;12.60;;;5.07;;
37407;SDS011;24866;50.248;8.252;2022-10-31T09:17:05;13.88;;;5.80;;
37407;SDS011;24866;50.248;8.252;2022-10-31T09:19:36;9.63;;;4.65;;
37407;SDS011;24866;50.248;8.252;2022-10-31T09:22:09;15.70;;;5.90;;
37407;SDS011;24866;50.248;8.252;2022-10-31T09:24:39;14.73;;;6.03;;
37407;SDS011;24866;50.248;8.252;2022-10-31T09:27:09;14.40;;;5.60;;
37407;SDS011;24866;50.248;8.252;2022-10-31T09:29:39;14.13;;;5.85;;
37407;SDS011;24866;50.248;8.252;2022-10-31T09:32:09;13.00;;;5.53;;
37407;SDS011;24866;50.248;8.252;2022-10-31T09:34:39;12.15;;;5.72;;
37407;SDS011;24866;50.248;8.252;2022-10-31T09:37:10;11.68;;;5.57;;
37407;SDS011;24866;50.248;8.252;2022-10-31T09:39:40;13.90;;;6.07;;
37407;SDS011;24866;50.248;8.252;2022-10-31T09:45:10;13.63;;;5.72;;
37407;SDS011;24866;50.248;8.252;2022-10-31T09:47:49;12.05;;;5.18;;
37407;SDS011;24866;50.248;8.252;2022-10-31T09:53:02;9.82;;;5.10;;
37407;SDS011;24866;50.248;8.252;2022-10-31T09:55:39;14.57;;;5.07;;
37407;SDS011;24866;50.248;8.252;2022-10-31T09:58:13;12.95;;;5.68;;
37407;SDS011;24866;50.248;8.252;2022-10-31T10:00:45;10.95;;;5.22;;
37407;SDS011;24866;50.248;8.252;2022-10-31T10:03:21;10.70;;;5.30;;
37407;SDS011;24866;50.248;8.252;2022-10-31T10:06:01;12.02;;;5.80;;
37407;SDS011;24866;50.248;8.252;2022-10-31T10:08:39;11.07;;;6.20;;
37407;SDS011;24866;50.248;8.252;2022-10-31T10:11:17;9.45;;;5.32;;
37407;SDS011;24866;50.248;8.252;2022-10-31T10:13:59;12.77;;;5.38;;
37407;SDS011;24866;50.248;8.252;2022-10-31T10:16:55;12.40;;;5.95;;
37407;SDS011;24866;50.248;8.252;2022-10-31T10:19:47;12.18;;;5.53;;
37407;SDS011;24866;50.248;8.252;2022-10-31T10:22:35;12.55;;;5.68;;
37407;SDS011;24866;50.248;8.252;2022-10-31T10:25:15;10.68;;;6.28;;
37407;SDS011;24866;50.248;8.252;2022-10-31T10:27:51;12.35;;;5.40;;
37407;SDS011;24866;50.248;8.252;2022-10-31T10:30:33;11.38;;;5.68;;
37407;SDS011;24866;50.248;8.252;2022-10-31T10:33:12;14.57;;;5.80;;
37407;SDS011;24866;50.248;8.252;2022-10-31T10:35:45;11.13;;;4.97;;
37407;SDS011;24866;50.248;8.252;2022-10-31T10:38:20;15.38;;;5.65;;
37407;SDS011;24866;50.248;8.252;2022-10-31T10:40:56;13.50;;;5.80;;
37407;SDS011;24866;50.248;8.252;2022-10-31T10:46:14;11.13;;;5.20;;
37407;SDS011;24866;50.248;8.252;2022-10-31T10:49:06;13.32;;;6.65;;
37407;SDS011;24866;50.248;8.252;2022-10-31T10:51:46;9.00;;;5.70;;
37407;SDS011;24866;50.248;8.252;2022-10-31T10:54:30;12.23;;;5.65;;
37407;SDS011;24866;50.248;8.252;2022-10-31T10:57:21;13.70;;;5.80;;
37407;SDS011;24866;50.248;8.252;2022-10-31T10:59:59;12.73;;;5.15;;
37407;SDS011;24866;50.248;8.252;2022-10-31T11:02:32;16.70;;;6.20;;
37407;SDS011;24866;50.248;8.252;2022-10-31T11:05:02;13.88;;;6.35;;
37407;SDS011;24866;50.248;8.252;2022-10-31T11:07:41;14.15;;;5.78;;
37407;SDS011;24866;50.248;8.252;2022-10-31T11:10:12;13.20;;;6.35;;
37407;SDS011;24866;50.248;8.252;2022-10-31T11:12:45;16.40;;;5.47;;
37407;SDS011;24866;50.248;8.252;2022-10-31T11:15:30;13.68;;;5.90;;
37407;SDS011;24866;50.248;8.252;2022-10-31T11:18:03;12.93;;;5.15;;
37407;SDS011;24866;50.248;8.252;2022-10-31T11:20:33;11.60;;;5.10;;
37407;SDS011;24866;50.248;8.252;2022-10-31T11:23:15;12.93;;;5.60;;
37407;SDS011;24866;50.248;8.252;2022-10-31T11:25:50;15.80;;;6.45;;
37407;SDS011;24866;50.248;8.252;2022-10-31T11:28:25;13.57;;;5.38;;
37407;SDS011;24866;50.248;8.252;2022-10-31T11:30:57;17.17;;;6.20;;
37407;SDS011;24866;50.248;8.252;2022-10-31T11:33:30;16.30;;;6.50;;
37407;SDS011;24866;50.248;8.252;2022-10-31T11:36:04;10.57;;;5.70;;
37407;SDS011;24866;50.248;8.252;2022-10-31T11:38:45;11.27;;;5.22;;
37407;SDS011;24866;50.248;8.252;2022-10-31T11:41:15;11.90;;;6.13;;
37407;SDS011;24866;50.248;8.252;2022-10-31T11:43:49;12.18;;;5.28;;
37407;SDS011;24866;50.248;8.252;2022-10-31T11:46:23;9.90;;;5.95;;
37407;SDS011;24866;50.248;8.252;2022-10-31T11:48:58;10.15;;;5.47;;
37407;SDS011;24866;50.248;8.252;2022-10-31T11:51:31;12.40;;;5.47;;
37407;SDS011;24866;50.248;8.252;2022-10-31T11:54:03;12.38;;;5.88;;
37407;SDS011;24866;50.248;8.252;2022-10-31T11:56:37;15.05;;;6.13;;
37407;SDS011;24866;50.248;8.252;2022-10-31T11:59:17;13.55;;;5.93;;
37407;SDS011;24866;50.248;8.252;2022-10-31T12:01:51;12.40;;;6.53;;
37407;SDS011;24866;50.248;8.252;2022-10-31T12:04:30;12.23;;;5.75;;
37407;SDS011;24866;50.248;8.252;2022-10-31T12:07:04;13.65;;;5.72;;
37407;SDS011;24866;50.248;8.252;2022-10-31T12:09:35;25.40;;;16.13;;
37407;SDS011;24866;50.248;8.252;2022-10-31T12:12:11;24.90;;;13.05;;
37407;SDS011;24866;50.248;8.252;2022-10-31T12:15:28;23.42;;;14.90;;
37407;SDS011;24866;50.248;8.252;2022-10-31T12:18:09;20.73;;;9.70;;
37407;SDS011;24866;50.248;8.252;2022-10-31T12:21:04;13.25;;;5.60;;
37407;SDS011;24866;50.248;8.252;2022-10-31T12:23:47;10.63;;;4.30;;
37407;SDS011;24866;50.248;8.252;2022-10-31T12:26:26;13.75;;;3.78;;
37407;SDS011;24866;50.248;8.252;2022-10-31T12:29:07;10.68;;;4.15;;
37407;SDS011;24866;50.248;8.252;2022-10-31T12:31:58;8.15;;;3.72;;
37407;SDS011;24866;50.248;8.252;2022-10-31T12:37:48;17.00;;;4.68;;
37407;SDS011;24866;50.248;8.252;2022-10-31T12:40:43;10.00;;;4.60;;
37407;SDS011;24866;50.248;8.252;2022-10-31T12:43:29;12.07;;;4.28;;
37407;SDS011;24866;50.248;8.252;2022-10-31T12:46:07;10.50;;;4.20;;
37407;SDS011;24866;50.248;8.252;2022-10-31T12:48:49;10.50;;;4.65;;
37407;SDS011;24866;50.248;8.252;2022-10-31T12:51:38;13.98;;;4.28;;
37407;SDS011;24866;50.248;8.252;2022-10-31T12:54:27;13.50;;;4.95;;
37407;SDS011;24866;50.248;8.252;2022-10-31T12:57:09;12.88;;;4.50;;
37407;SDS011;24866;50.248;8.252;2022-10-31T12:59:47;11.80;;;4.70;;
37407;SDS011;24866;50.248;8.252;2022-10-31T13:02:21;10.52;;;4.43;;
37407;SDS011;24866;50.248;8.252;2022-10-31T13:04:58;9.27;;;4.55;;
37407;SDS011;24866;50.248;8.252;2022-10-31T13:07:33;14.13;;;4.63;;
37407;SDS011;24866;50.248;8.252;2022-10-31T13:10:07;11.30;;;4.63;;
37407;SDS011;24866;50.248;8.252;2022-10-31T13:12:44;11.85;;;4.40;;
37407;SDS011;24866;50.248;8.252;2022-10-31T13:15:20;10.27;;;3.83;;
37407;SDS011;24866;50.248;8.252;2022-10-31T13:17:53;9.77;;;4.75;;
37407;SDS011;24866;50.248;8.252;2022-10-31T13:20:27;11.05;;;3.95;;
37407;SDS011;24866;50.248;8.252;2022-10-31T13:23:03;11.68;;;4.28;;
37407;SDS011;24866;50.248;8.252;2022-10-31T13:25:38;12.70;;;4.20;;
37407;SDS011;24866;50.248;8.252;2022-10-31T13:28:18;12.25;;;4.15;;
37407;SDS011;24866;50.248;8.252;2022-10-31T13:30:56;13.98;;;4.28;;
37407;SDS011;24866;50.248;8.252;2022-10-31T13:33:26;10.98;;;4.05;;
37407;SDS011;24866;50.248;8.252;2022-10-31T13:36:04;10.52;;;3.65;;
37407;SDS011;24866;50.248;8.252;2022-10-31T13:38:41;9.38;;;4.18;;
37407;SDS011;24866;50.248;8.252;2022-10-31T13:41:21;9.15;;;3.60;;
37407;SDS011;24866;50.248;8.252;2022-10-31T13:43:59;11.60;;;4.50;;
37407;SDS011;24866;50.248;8.252;2022-10-31T13:46:42;10.85;;;4.03;;
37407;SDS011;24866;50.248;8.252;2022-10-31T13:49:24;8.70;;;3.65;;
37407;SDS011;24866;50.248;8.252;2022-10-31T13:54:42;10.30;;;3.90;;
37407;SDS011;24866;50.248;8.252;2022-10-31T13:57:15;9.73;;;4.10;;
37407;SDS011;24866;50.248;8.252;2022-10-31T13:59:48;10.35;;;4.10;;
37407;SDS011;24866;50.248;8.252;2022-10-31T14:02:22;11.13;;;3.67;;
37407;SDS011;24866;50.248;8.252;2022-10-31T14:04:56;10.18;;;4.13;;
37407;SDS011;24866;50.248;8.252;2022-10-31T14:07:30;16.08;;;4.40;;
37407;SDS011;24866;50.248;8.252;2022-10-31T14:10:02;18.55;;;5.57;;
37407;SDS011;24866;50.248;8.252;2022-10-31T14:12:36;11.98;;;5.00;;
37407;SDS011;24866;50.248;8.252;2022-10-31T14:15:13;12.98;;;4.45;;
37407;SDS011;24866;50.248;8.252;2022-10-31T14:17:46;11.77;;;4.35;;
37407;SDS011;24866;50.248;8.252;2022-10-31T14:23:11;9.43;;;4.28;;
37407;SDS011;24866;50.248;8.252;2022-10-31T14:26:17;13.10;;;5.90;;
37407;SDS011;24866;50.248;8.252;2022-10-31T14:28:49;14.73;;;4.72;;
37407;SDS011;24866;50.248;8.252;2022-10-31T14:31:29;11.80;;;4.70;;
37407;SDS011;24866;50.248;8.252;2022-10-31T14:34:15;13.68;;;5.22;;
37407;SDS011;24866;50.248;8.252;2022-10-31T14:36:54;13.10;;;3.67;;
37407;SDS011;24866;50.248;8.252;2022-10-31T14:39:33;12.98;;;4.18;;
37407;SDS011;24866;50.248;8.252;2022-10-31T14:42:14;11.85;;;4.45;;
37407;SDS011;24866;50.248;8.252;2022-10-31T14:44:55;10.10;;;3.83;;
37407;SDS011;24866;50.248;8.252;2022-10-31T14:47:47;10.70;;;4.30;;
37407;SDS011;24866;50.248;8.252;2022-10-31T14:53:22;9.15;;;3.92;;
37407;SDS011;24866;50.248;8.252;2022-10-31T14:55:56;13.07;;;3.83;;
37407;SDS011;24866;50.248;8.252;2022-10-31T14:58:28;16.20;;;4.20;;
37407;SDS011;24866;50.248;8.252;2022-10-31T15:01:04;9.30;;;4.22;;
37407;SDS011;24866;50.248;8.252;2022-10-31T15:03:36;11.88;;;4.38;;
37407;SDS011;24866;50.248;8.252;2022-10-31T15:06:10;10.00;;;4.05;;
37407;SDS011;24866;50.248;8.252;2022-10-31T15:08:44;10.85;;;3.72;;
37407;SDS011;24866;50.248;8.252;2022-10-31T15:11:16;9.77;;;3.83;;
37407;SDS011;24866;50.248;8.252;2022-10-31T15:13:48;12.05;;;4.22;;
37407;SDS011;24866;50.248;8.252;2022-10-31T15:16:20;17.95;;;4.75;;
37407;SDS011;24866;50.248;8.252;2022-10-31T15:18:53;12.18;;;4.70;;
37407;SDS011;24866;50.248;8.252;2022-10-31T15:21:24;10.82;;;4.47;;
37407;SDS011;24866;50.248;8.252;2022-10-31T15:23:58;13.07;;;4.85;;
37407;SDS011;24866;50.248;8.252;2022-10-31T15:26:32;11.10;;;4.10;;
37407;SDS011;24866;50.248;8.252;2022-10-31T15:29:11;7.47;;;3.80;;
37407;SDS011;24866;50.248;8.252;2022-10-31T15:31:49;11.07;;;4.40;;
37407;SDS011;24866;50.248;8.252;2022-10-31T15:34:20;9.38;;;4.10;;
37407;SDS011;24866;50.248;8.252;2022-10-31T15:36:55;12.02;;;4.38;;
37407;SDS011;24866;50.248;8.252;2022-10-31T15:39:25;10.20;;;3.83;;
37407;SDS011;24866;50.248;8.252;2022-10-31T15:41:57;10.73;;;4.03;;